Time;durP1;ratioP1;P1;durP2;ratioP2;P2;SDS_P1;SDS_P2;PMS_P1;PMS_P2;Temp;Humidity;BMP_temperature;BMP_pressure;BME280_temperature;BME280_humidity;BME280_pressure;Samples;Min_cycle;Max_cycle;Signal;HPM_P1;HPM_P2
2022/01/15 00:00:05;;;;;;;53.63;19.10;;;;;;;12.07;47.74;103017.19;4957656;28;20117;-61
2022/01/15 00:02:30;;;;;;;45.92;17.40;;;;;;;12.09;47.32;103020.66;4973991;28;20113;-62
2022/01/15 00:04:56;;;;;;;49.15;18.10;;;;;;;12.11;47.48;103021.47;4957765;28;20122;-61
2022/01/15 00:07:21;;;;;;;55.95;17.90;;;;;;;12.10;47.74;103014.34;4974533;28;20038;-62
2022/01/15 00:09:49;;;;;;;51.70;18.92;;;;;;;12.11;47.65;103021.47;4974811;28;20031;-62
2022/01/15 00:12:15;;;;;;;53.50;17.63;;;;;;;12.05;47.08;103011.06;4974324;28;20030;-62
2022/01/15 00:14:42;;;;;;;47.50;17.30;;;;;;;12.07;47.89;103019.88;4957457;28;20396;-62
2022/01/15 00:17:15;;;;;;;49.88;16.70;;;;;;;12.07;48.13;103027.94;4975038;28;20038;-62
2022/01/15 00:19:41;;;;;;;50.42;18.95;;;;;;;12.05;47.31;103019.13;4973809;28;20037;-61
2022/01/15 00:22:18;;;;;;;49.88;18.38;;;;;;;12.01;48.02;103017.53;4973654;28;20026;-62
2022/01/15 00:24:45;;;;;;;47.03;17.85;;;;;;;12.04;47.82;103025.44;4973818;28;20027;-62
2022/01/15 00:27:10;;;;;;;53.75;17.25;;;;;;;12.05;47.93;103019.13;4957526;28;20039;-62
2022/01/15 00:29:36;;;;;;;44.33;17.05;;;;;;;12.03;47.44;103012.94;4974582;28;20468;-61
2022/01/15 00:32:03;;;;;;;50.78;16.00;;;;;;;12.00;48.24;103015.81;4957542;28;20388;-61
2022/01/15 00:34:28;;;;;;;48.60;15.85;;;;;;;11.96;47.55;103006.19;4974586;28;20628;-61
2022/01/15 00:36:54;;;;;;;48.00;14.88;;;;;;;11.93;47.65;103003.66;4973582;28;20054;-62
2022/01/15 00:39:19;;;;;;;51.08;15.82;;;;;;;11.91;47.42;102997.53;4974765;28;20023;-62
2022/01/15 00:41:45;;;;;;;43.55;13.73;;;;;;;11.93;47.20;103000.09;4973536;28;20192;-62
2022/01/15 00:44:10;;;;;;;38.53;14.20;;;;;;;11.88;48.10;102989.63;4974649;28;20038;-62
2022/01/15 00:46:36;;;;;;;38.65;16.25;;;;;;;11.84;47.41;102982.69;4974620;28;20507;-62
2022/01/15 00:49:01;;;;;;;41.88;14.65;;;;;;;11.83;47.91;102991.72;4957554;28;20027;-61
2022/01/15 00:51:26;;;;;;;46.15;16.48;;;;;;;11.78;47.34;102987.53;4957343;28;20046;-61
2022/01/15 00:53:52;;;;;;;45.78;16.13;;;;;;;11.74;47.79;102997.56;4974457;28;20113;-62
2022/01/15 00:56:17;;;;;;;43.38;15.65;;;;;;;11.70;47.08;102979.03;4973254;28;20089;-62
2022/01/15 00:58:42;;;;;;;42.28;14.65;;;;;;;11.67;48.04;102974.66;4974481;28;20031;-62
2022/01/15 01:01:08;;;;;;;46.95;15.40;;;;;;;11.67;47.64;102982.69;4974522;28;20081;-61
2022/01/15 01:03:33;;;;;;;43.78;15.55;;;;;;;11.61;47.78;102975.00;4974428;28;20031;-62
2022/01/15 01:05:59;;;;;;;37.00;14.55;;;;;;;11.57;48.04;102976.09;4974375;28;20054;-62
2022/01/15 01:08:24;;;;;;;46.83;15.40;;;;;;;11.56;48.26;102971.69;4974317;28;20041;-62
2022/01/15 01:23:46;;;;;;;49.10;15.25;;;;;;;11.43;48.09;102957.19;4977829;28;20045;-61
2022/01/15 01:31:51;;;;;;;48.88;15.88;;;;;;;11.40;48.73;102949.31;4977918;28;20038;-61
2022/01/15 01:34:17;;;;;;;43.88;14.70;;;;;;;11.31;47.72;102939.06;4977362;28;20070;-62
2022/01/15 01:39:38;;;;;;;38.83;14.32;;;;;;;11.28;48.49;102929.38;4961768;28;20086;-62
2022/01/15 01:44:58;;;;;;;45.90;16.00;;;;;;;11.26;48.47;102925.03;4977582;28;20058;-62
2022/01/15 01:47:34;;;;;;;48.22;16.08;;;;;;;11.26;48.41;102933.09;4976232;28;20049;-61
2022/01/15 01:49:59;;;;;;;45.20;16.75;;;;;;;11.20;48.10;102941.44;4977317;28;20093;-61
2022/01/15 01:52:26;;;;;;;54.33;16.17;;;;;;;11.17;48.58;102930.91;4976112;28;20484;-61
2022/01/15 01:54:53;;;;;;;47.72;16.23;;;;;;;11.22;48.40;102947.63;4977268;28;20073;-62
2022/01/15 01:57:18;;;;;;;49.03;17.75;;;;;;;11.20;48.49;102941.44;4959886;28;20523;-61
2022/01/15 01:59:43;;;;;;;50.30;16.90;;;;;;;11.19;48.75;102943.28;4959358;28;20023;-61
2022/01/15 02:02:09;;;;;;;57.55;17.13;;;;;;;11.15;48.48;102943.50;4977027;28;20420;-62
2022/01/15 02:04:34;;;;;;;47.33;17.02;;;;;;;11.17;48.64;102936.28;4977060;28;20038;-61
2022/01/15 02:07:00;;;;;;;57.35;17.13;;;;;;;11.13;49.17;102934.69;4977015;28;20076;-62
2022/01/15 02:09:26;;;;;;;51.97;16.55;;;;;;;11.10;48.38;102933.91;4977030;28;20029;-62
2022/01/15 02:11:51;;;;;;;49.53;15.35;;;;;;;11.15;48.85;102939.03;4959874;28;20384;-62
2022/01/15 02:14:27;;;;;;;55.45;15.80;;;;;;;11.14;48.63;102941.81;4976928;28;20026;-61
2022/01/15 02:16:53;;;;;;;45.95;13.38;;;;;;;11.04;48.72;102926.19;4959440;28;20031;-62
2022/01/15 02:19:18;;;;;;;65.10;14.40;;;;;;;11.04;48.73;102936.03;4975569;28;20117;-62
2022/01/15 02:24:12;;;;;;;54.42;14.35;;;;;;;11.05;48.79;102933.25;4976981;28;20030;-61
2022/01/15 02:26:39;;;;;;;50.72;13.85;;;;;;;11.04;48.81;102923.50;4975739;28;20170;-61
2022/01/15 02:29:05;;;;;;;50.92;14.35;;;;;;;11.03;48.41;102923.56;4975276;28;20532;-62
2022/01/15 02:31:31;;;;;;;41.80;12.43;;;;;;;11.03;48.77;102920.88;4975407;28;20053;-61
2022/01/15 02:34:00;;;;;;;60.38;15.32;;;;;;;11.04;48.81;102919.94;4975141;28;20065;-62
2022/01/15 02:36:31;;;;;;;54.60;14.68;;;;;;;11.06;49.11;102912.69;4976363;28;20043;-61
2022/01/15 02:38:57;;;;;;;50.63;14.10;;;;;;;11.07;48.89;102909.06;4976185;28;20117;-62
2022/01/15 02:41:35;;;;;;;50.63;13.80;;;;;;;11.06;49.08;102892.09;4976299;28;20109;-62
2022/01/15 02:44:04;;;;;;;59.35;15.25;;;;;;;11.09;49.09;102894.63;4975049;28;20484;-62
2022/01/15 02:49:00;;;;;;;50.00;15.30;;;;;;;11.09;49.16;102893.75;4976306;28;20026;-62
2022/01/15 02:51:28;;;;;;;51.08;13.57;;;;;;;11.08;49.05;102889.34;4974879;28;20037;-62
2022/01/15 02:53:56;;;;;;;44.80;14.43;;;;;;;11.07;49.26;102887.59;4958745;28;20026;-61
2022/01/15 02:56:33;;;;;;;55.78;14.32;;;;;;;11.02;49.66;102878.94;4974594;28;20400;-62
2022/01/15 02:58:59;;;;;;;39.53;12.02;;;;;;;11.04;49.19;102879.72;4975666;28;20019;-62
2022/01/15 03:01:24;;;;;;;48.97;13.43;;;;;;;10.99;49.03;102871.94;4975675;28;20085;-62
2022/01/15 03:03:50;;;;;;;46.30;12.65;;;;;;;11.02;49.29;102878.94;4976294;28;20460;-62
2022/01/15 03:06:17;;;;;;;55.72;14.77;;;;;;;11.00;49.08;102876.34;4974749;28;20553;-61
2022/01/15 03:08:44;;;;;;;54.45;13.30;;;;;;;11.01;49.40;102877.19;4974444;28;20101;-61
2022/01/15 03:11:10;;;;;;;41.25;13.52;;;;;;;10.96;48.99;102869.41;4975850;28;20027;-62
2022/01/15 03:13:38;;;;;;;42.78;12.57;;;;;;;10.91;49.71;102851.84;4975755;28;20034;-61
2022/01/15 03:16:04;;;;;;;39.28;12.30;;;;;;;10.91;48.70;102852.72;4975807;28;20496;-62
2022/01/15 03:18:30;;;;;;;45.50;13.25;;;;;;;10.89;48.96;102849.22;4974368;28;20476;-62
2022/01/15 03:20:55;;;;;;;35.05;11.27;;;;;;;10.89;49.63;102851.91;4975449;28;20114;-61
2022/01/15 03:23:20;;;;;;;40.95;11.40;;;;;;;10.83;49.77;102841.50;4975587;28;20030;-61
2022/01/15 03:25:46;;;;;;;46.45;12.43;;;;;;;10.82;49.47;102847.84;4975642;28;20149;-61
2022/01/15 03:28:11;;;;;;;44.88;11.23;;;;;;;10.78;49.47;102843.56;4975627;28;20033;-62
2022/01/15 03:30:37;;;;;;;37.88;11.57;;;;;;;10.79;49.47;102844.44;4975491;28;20022;-62
2022/01/15 03:33:03;;;;;;;56.10;11.85;;;;;;;10.78;49.47;102838.19;4975535;28;20034;-62
2022/01/15 03:35:28;;;;;;;40.42;11.73;;;;;;;10.77;49.51;102839.16;4973945;28;20050;-61
2022/01/15 03:37:54;;;;;;;36.63;12.00;;;;;;;10.77;49.76;102836.50;4975362;28;20033;-61
2022/01/15 03:40:19;;;;;;;47.17;11.85;;;;;;;10.77;49.99;102836.50;4966153;28;20031;-61
2022/01/15 03:42:45;;;;;;;47.42;11.32;;;;;;;10.75;49.31;102834.84;4974984;28;20504;-61
2022/01/15 03:45:12;;;;;;;42.15;11.75;;;;;;;10.72;49.65;102827.81;4941816;28;20027;-61
2022/01/15 03:47:38;;;;;;;38.45;12.00;;;;;;;10.72;49.60;102830.47;4975131;28;20030;-62
2022/01/15 03:50:04;;;;;;;48.55;12.02;;;;;;;10.65;49.71;102829.09;4957757;28;20424;-61
2022/01/15 03:52:29;;;;;;;39.15;11.60;;;;;;;10.63;49.71;102828.31;4975045;28;20065;-61
2022/01/15 03:54:55;;;;;;;43.15;11.65;;;;;;;10.60;50.18;102827.59;4975107;28;20018;-62
2022/01/15 03:57:21;;;;;;;36.40;12.75;;;;;;;10.62;49.72;102823.88;4975075;28;20027;-62
2022/01/15 03:59:46;;;;;;;49.47;13.50;;;;;;;10.62;49.82;102820.34;4974908;28;20106;-61
2022/01/15 04:02:11;;;;;;;42.67;10.85;;;;;;;10.62;49.94;102821.19;4957894;28;20053;-61
2022/01/15 04:04:37;;;;;;;41.28;11.60;;;;;;;10.65;49.65;102814.81;4957882;28;20487;-62
2022/01/15 04:07:02;;;;;;;40.58;10.65;;;;;;;10.62;49.25;102810.47;4975223;28;20085;-61
2022/01/15 04:09:28;;;;;;;41.25;11.10;;;;;;;10.57;49.98;102801.81;4957775;28;20054;-62
2022/01/15 04:11:53;;;;;;;34.55;9.60;;;;;;;10.62;49.82;102807.81;4974864;28;20105;-61
2022/01/15 04:14:18;;;;;;;40.15;10.88;;;;;;;10.63;49.59;102806.00;4974974;28;20023;-62
2022/01/15 04:16:44;;;;;;;39.95;10.73;;;;;;;10.62;49.68;102802.44;4975036;28;20031;-61
2022/01/15 04:19:09;;;;;;;38.15;10.65;;;;;;;10.53;49.19;102790.41;4974965;28;20023;-61
2022/01/15 04:21:36;;;;;;;47.72;11.40;;;;;;;10.62;50.09;102788.19;4974652;28;20035;-61
2022/01/15 04:24:02;;;;;;;42.22;11.27;;;;;;;10.66;49.71;102796.00;4974832;28;20106;-62
2022/01/15 04:26:27;;;;;;;39.60;10.30;;;;;;;10.67;49.61;102795.03;4974500;28;20054;-61
2022/01/15 04:28:54;;;;;;;40.92;11.10;;;;;;;10.63;49.09;102789.91;4957496;28;20034;-61
2022/01/15 04:31:20;;;;;;;37.60;11.68;;;;;;;10.62;49.82;102791.72;4974771;28;20106;-61
2022/01/15 04:33:45;;;;;;;43.08;10.80;;;;;;;10.60;49.79;102793.63;4974483;28;20113;-62
2022/01/15 04:36:11;;;;;;;41.50;11.93;;;;;;;10.59;50.15;102786.53;4974604;28;20054;-62
2022/01/15 04:38:38;;;;;;;45.75;10.68;;;;;;;10.58;49.77;102776.75;4974700;28;20035;-61
2022/01/15 04:41:08;;;;;;;42.47;10.07;;;;;;;10.57;49.70;102776.84;4957609;28;20019;-62
2022/01/15 04:43:34;;;;;;;42.55;10.55;;;;;;;10.57;49.99;102780.41;4957273;28;20551;-58
2022/01/15 04:45:59;;;;;;;47.38;10.32;;;;;;;10.55;50.12;102770.72;4975073;28;20030;-59
2022/01/15 04:48:25;;;;;;;36.40;10.60;;;;;;;10.52;49.83;102755.66;4974740;28;20027;-62
2022/01/15 04:50:50;;;;;;;37.60;9.68;;;;;;;10.48;49.32;102756.75;4957377;28;20054;-61
2022/01/15 04:53:16;;;;;;;41.22;11.35;;;;;;;10.51;50.07;102759.28;4974720;28;20463;-62
2022/01/15 04:55:41;;;;;;;39.42;12.02;;;;;;;10.55;50.61;102766.22;4977506;28;20077;-62
2022/01/15 04:58:07;;;;;;;33.60;11.75;;;;;;;10.58;50.00;102766.03;4978162;28;20392;-62
2022/01/15 05:00:33;;;;;;;34.75;10.25;;;;;;;10.62;49.91;102767.59;4978104;28;20029;-61
2022/01/15 05:02:59;;;;;;;44.22;11.50;;;;;;;10.65;50.07;102762.09;4978004;28;20031;-62
2022/01/15 05:05:25;;;;;;;46.20;11.88;;;;;;;10.65;49.48;102767.44;4978030;28;20038;-62
2022/01/15 05:07:54;;;;;;;35.58;10.50;;;;;;;10.59;49.70;102754.38;4960735;28;20034;-62
2022/01/15 05:10:23;;;;;;;39.58;11.15;;;;;;;10.52;50.46;102744.94;4961519;28;20162;-61
2022/01/15 05:12:49;;;;;;;37.90;10.40;;;;;;;10.52;50.37;102747.63;4961158;28;20014;-61
2022/01/15 05:15:17;;;;;;;29.40;10.55;;;;;;;10.49;49.58;102751.34;4960452;28;20029;-62
2022/01/15 05:17:43;;;;;;;35.05;9.88;;;;;;;10.43;49.99;102748.09;4960644;28;20048;-62
2022/01/15 05:20:10;;;;;;;32.70;10.88;;;;;;;10.40;50.03;102751.81;4960484;28;20019;-59
2022/01/15 05:22:35;;;;;;;42.47;11.15;;;;;;;10.40;49.80;102756.28;4978048;28;20030;-59
2022/01/15 05:25:03;;;;;;;32.40;13.25;;;;;;;10.40;50.03;102754.50;4977873;28;20498;-59
2022/01/15 05:27:28;;;;;;;29.00;10.15;;;;;;;10.44;49.98;102755.22;4960487;28;20112;-59
2022/01/15 05:29:53;;;;;;;36.20;9.52;;;;;;;10.42;50.05;102746.34;4977580;28;20097;-62
2022/01/15 05:32:19;;;;;;;42.35;9.82;;;;;;;10.39;49.93;102743.84;4977495;28;20033;-61
2022/01/15 05:34:45;;;;;;;31.17;9.10;;;;;;;10.37;49.83;102729.66;4959793;28;20061;-62
2022/01/15 05:37:11;;;;;;;33.38;11.13;;;;;;;10.36;50.40;102733.28;4977507;28;20045;-63
2022/01/15 05:39:36;;;;;;;35.42;11.20;;;;;;;10.30;49.83;102734.47;4960091;28;20397;-61
2022/01/15 05:42:02;;;;;;;34.10;10.00;;;;;;;10.29;50.45;102726.53;4977541;28;20106;-62
2022/01/15 05:44:27;;;;;;;34.83;9.82;;;;;;;10.34;50.52;102728.03;4976088;28;20038;-62
2022/01/15 05:46:53;;;;;;;35.60;10.73;;;;;;;10.34;50.27;102719.13;4977331;28;20027;-62
2022/01/15 05:49:18;;;;;;;33.47;12.00;;;;;;;10.39;50.11;102733.13;4977341;28;20023;-62
2022/01/15 05:51:44;;;;;;;35.22;10.60;;;;;;;10.39;49.73;102722.41;4976125;28;20043;-61
2022/01/15 05:54:10;;;;;;;27.65;8.98;;;;;;;10.41;50.16;102725.91;4977510;28;20392;-62
2022/01/15 05:56:37;;;;;;;26.85;10.38;;;;;;;10.41;50.27;102717.88;4977245;28;20117;-62
2022/01/15 05:59:03;;;;;;;34.08;10.13;;;;;;;10.37;50.25;102709.13;4959318;28;20035;-62
2022/01/15 06:01:28;;;;;;;32.85;8.77;;;;;;;10.29;49.61;102710.47;4977104;28;20034;-61
2022/01/15 06:03:54;;;;;;;30.15;9.93;;;;;;;10.20;50.29;102706.47;4977023;28;20039;-61
2022/01/15 06:06:19;;;;;;;19.42;7.70;;;;;;;10.20;50.01;102708.25;4976877;28;20455;-61
2022/01/15 06:08:44;;;;;;;28.77;8.00;;;;;;;10.18;50.40;102712.84;4959781;28;20022;-59
2022/01/15 06:11:11;;;;;;;37.25;7.95;;;;;;;10.10;50.41;102697.16;4976949;28;20034;-58
2022/01/15 06:13:36;;;;;;;31.05;7.85;;;;;;;10.10;50.17;102704.31;4977176;28;20129;-59
2022/01/15 06:16:02;;;;;;;26.20;9.30;;;;;;;10.06;50.17;102698.25;4975535;28;20522;-58
2022/01/15 06:18:27;;;;;;;24.80;8.60;;;;;;;10.02;50.75;102693.16;4959473;28;20026;-59
2022/01/15 06:20:53;;;;;;;26.55;8.57;;;;;;;9.97;50.13;102692.53;4977017;28;20055;-59
2022/01/15 06:23:18;;;;;;;32.78;7.88;;;;;;;9.93;50.11;102697.16;4976807;28;20480;-59
2022/01/15 06:25:43;;;;;;;26.48;8.57;;;;;;;9.84;50.45;102677.09;4959370;28;20379;-59
2022/01/15 06:28:09;;;;;;;24.85;8.20;;;;;;;9.88;50.26;102675.97;4976602;28;20022;-59
2022/01/15 06:30:34;;;;;;;31.10;7.95;;;;;;;9.83;50.28;102677.16;4976555;28;20027;-59
2022/01/15 06:32:59;;;;;;;29.40;7.97;;;;;;;9.86;50.49;102691.25;4975375;28;20034;-59
2022/01/15 06:35:25;;;;;;;30.65;9.80;;;;;;;9.82;50.57;102679.00;4976263;28;20067;-59
2022/01/15 06:37:52;;;;;;;26.40;8.50;;;;;;;9.85;50.73;102684.16;4975497;28;20058;-59
2022/01/15 06:40:17;;;;;;;29.05;7.95;;;;;;;9.88;50.59;102689.34;4975162;28;20542;-59
2022/01/15 06:42:43;;;;;;;23.67;7.57;;;;;;;9.90;50.51;102683.94;4976397;28;20027;-59
2022/01/15 06:45:09;;;;;;;22.55;7.72;;;;;;;9.88;50.45;102678.63;4959063;28;20022;-59
2022/01/15 06:47:35;;;;;;;34.28;8.07;;;;;;;9.87;50.98;102679.59;4976469;28;20543;-59
2022/01/15 06:50:04;;;;;;;33.90;8.25;;;;;;;9.92;50.53;102684.72;4976123;28;20023;-59
2022/01/15 06:52:35;;;;;;;19.15;7.78;;;;;;;9.93;50.61;102691.81;4976352;28;20544;-59
2022/01/15 06:55:01;;;;;;;33.47;8.27;;;;;;;9.92;50.30;102690.06;4959113;28;20018;-59
2022/01/15 06:57:26;;;;;;;23.92;7.85;;;;;;;9.93;50.80;102692.69;4976530;28;20026;-59
2022/01/15 06:59:52;;;;;;;25.08;6.93;;;;;;;9.83;50.53;102680.69;4976084;28;20500;-59
2022/01/15 07:02:18;;;;;;;26.63;8.63;;;;;;;9.97;50.01;102700.56;4976257;28;20495;-59
2022/01/15 07:04:43;;;;;;;32.90;9.35;;;;;;;9.99;50.43;102702.19;4975002;28;20105;-59
2022/01/15 07:07:08;;;;;;;23.17;8.50;;;;;;;10.00;50.53;102703.91;4976219;28;20031;-58
2022/01/15 07:09:35;;;;;;;28.13;9.48;;;;;;;9.99;51.13;102706.69;4976044;28;20087;-58
2022/01/15 07:12:01;;;;;;;21.30;7.65;;;;;;;9.99;50.37;102704.00;4976238;28;20027;-59
2022/01/15 07:14:26;;;;;;;25.92;7.93;;;;;;;9.99;50.48;102706.69;4976039;28;20031;-59
2022/01/15 07:16:52;;;;;;;22.10;8.15;;;;;;;9.97;50.21;102697.88;4974054;28;20407;-59
2022/01/15 07:19:17;;;;;;;17.15;7.65;;;;;;;9.97;50.78;102708.59;4975824;28;20075;-59
2022/01/15 07:21:42;;;;;;;19.65;6.45;;;;;;;9.94;50.39;102705.09;4974526;28;20062;-58
2022/01/15 07:24:08;;;;;;;12.38;6.25;;;;;;;9.92;50.06;102700.78;4958330;28;20034;-59
2022/01/15 07:26:34;;;;;;;20.83;7.60;;;;;;;9.88;50.61;102692.03;4975072;28;20025;-59
2022/01/15 07:28:59;;;;;;;21.52;6.78;;;;;;;9.82;49.96;102688.81;4975865;28;20031;-59
2022/01/15 07:31:25;;;;;;;21.40;7.75;;;;;;;9.84;50.83;102706.53;4975521;28;20106;-59
2022/01/15 07:33:50;;;;;;;19.10;6.68;;;;;;;9.85;50.47;102692.19;4974420;28;20500;-59
2022/01/15 07:36:16;;;;;;;19.33;8.27;;;;;;;9.86;50.09;102696.59;4974183;28;20057;-59
2022/01/15 07:38:43;;;;;;;25.70;7.22;;;;;;;9.89;50.74;102696.44;4974536;28;20022;-59
2022/01/15 07:41:12;;;;;;;15.63;5.90;;;;;;;9.91;50.44;102696.34;4958280;28;20113;-59
2022/01/15 07:43:38;;;;;;;28.50;8.18;;;;;;;9.90;50.77;102698.19;4975417;28;20029;-59
2022/01/15 07:46:03;;;;;;;18.17;6.80;;;;;;;9.85;50.30;102694.84;4942346;28;20031;-59
2022/01/15 07:48:29;;;;;;;26.63;7.50;;;;;;;9.83;51.02;102704.78;4975307;28;20095;-59
2022/01/15 07:50:54;;;;;;;19.02;7.03;;;;;;;9.79;50.22;102711.25;4975313;28;20030;-59
2022/01/15 07:53:19;;;;;;;16.67;6.70;;;;;;;9.76;50.93;102708.72;4975562;28;20022;-59
2022/01/15 07:55:45;;;;;;;18.45;6.32;;;;;;;9.72;50.18;102707.13;4975428;28;20026;-59
2022/01/15 07:58:10;;;;;;;17.40;6.97;;;;;;;9.73;50.44;102706.22;4958533;28;20033;-59
2022/01/15 08:00:36;;;;;;;20.63;6.78;;;;;;;9.72;49.98;102696.44;4975357;28;20037;-59
2022/01/15 08:03:01;;;;;;;22.95;7.47;;;;;;;9.73;49.95;102700.84;4975093;28;20030;-59
2022/01/15 08:05:27;;;;;;;14.70;6.82;;;;;;;9.69;50.51;102699.25;4974887;28;20029;-59
2022/01/15 08:07:52;;;;;;;27.17;7.47;;;;;;;9.67;50.84;102692.25;4975202;28;20109;-59
2022/01/15 08:10:17;;;;;;;23.08;6.30;;;;;;;9.64;50.21;102687.06;4974788;28;20097;-58
2022/01/15 08:12:44;;;;;;;21.08;7.68;;;;;;;9.67;50.33;102695.81;4957934;28;20082;-59
2022/01/15 08:15:10;;;;;;;19.85;7.40;;;;;;;9.66;50.75;102687.88;4974912;28;20373;-59
2022/01/15 08:17:35;;;;;;;18.60;7.40;;;;;;;9.68;50.43;102684.19;4975319;28;20058;-59
2022/01/15 08:20:01;;;;;;;19.65;6.45;;;;;;;9.70;50.35;102678.72;4974779;28;20069;-59
2022/01/15 08:22:27;;;;;;;16.83;6.93;;;;;;;9.74;50.13;102681.16;4957612;28;20030;-59
2022/01/15 08:24:52;;;;;;;20.10;7.85;;;;;;;9.68;50.00;102665.44;4973651;28;20086;-59
2022/01/15 08:27:17;;;;;;;16.88;6.78;;;;;;;9.78;50.42;102684.56;4957408;28;20103;-59
2022/01/15 08:29:43;;;;;;;19.00;6.90;;;;;;;9.79;50.47;102684.50;4976670;28;20051;-59
2022/01/15 08:32:08;;;;;;;18.45;6.80;;;;;;;9.79;50.48;102686.28;4978848;28;20054;-59
2022/01/15 08:34:34;;;;;;;17.60;6.95;;;;;;;9.77;49.74;102690.88;4978612;28;20523;-59
2022/01/15 08:36:59;;;;;;;19.73;7.28;;;;;;;9.75;50.44;102688.25;4961652;28;20098;-59
2022/01/15 08:39:24;;;;;;;27.10;7.53;;;;;;;9.71;50.36;102675.13;4978499;28;20552;-59
2022/01/15 08:41:50;;;;;;;23.90;7.95;;;;;;;9.72;49.77;102674.16;4978480;28;20026;-59
2022/01/15 08:44:16;;;;;;;23.35;6.95;;;;;;;9.70;50.46;102674.25;4977838;28;20519;-59
2022/01/15 08:46:42;;;;;;;21.88;7.88;;;;;;;9.63;50.22;102666.63;4977476;28;20543;-59
2022/01/15 08:49:08;;;;;;;17.98;6.93;;;;;;;9.65;50.28;102673.63;4978624;28;20094;-59
2022/01/15 08:51:33;;;;;;;20.52;7.43;;;;;;;9.60;50.40;102669.44;4978188;28;20102;-59
2022/01/15 08:53:58;;;;;;;18.55;6.47;;;;;;;9.56;50.27;102663.38;4978343;28;20027;-58
2022/01/15 08:56:24;;;;;;;25.45;7.28;;;;;;;9.58;50.50;102672.19;4978474;28;20433;-59
2022/01/15 08:58:49;;;;;;;22.45;7.50;;;;;;;9.58;50.21;102672.19;4978067;28;20062;-59
2022/01/15 09:01:15;;;;;;;23.98;7.15;;;;;;;9.57;50.51;102667.81;4978207;28;20077;-59
2022/01/15 09:03:41;;;;;;;17.92;6.53;;;;;;;9.60;50.23;102673.00;4961326;28;20026;-60
2022/01/15 09:06:08;;;;;;;23.50;7.63;;;;;;;9.57;50.09;102667.81;4976971;28;20052;-59
2022/01/15 09:08:33;;;;;;;21.92;7.55;;;;;;;9.67;50.31;102663.69;4978316;28;20029;-59
2022/01/15 09:10:58;;;;;;;24.58;7.75;;;;;;;9.61;50.69;102647.09;4960740;28;20026;-58
2022/01/15 09:13:24;;;;;;;25.05;9.02;;;;;;;9.76;50.73;102668.59;4977893;28;20523;-59
2022/01/15 09:15:50;;;;;;;24.70;7.78;;;;;;;9.81;49.71;102666.53;4978215;28;20023;-59
2022/01/15 09:18:16;;;;;;;20.25;7.63;;;;;;;9.77;50.16;102654.25;4978166;28;20027;-59
2022/01/15 09:20:41;;;;;;;24.83;8.25;;;;;;;9.93;50.06;102673.94;4977935;28;20393;-62
2022/01/15 09:23:09;;;;;;;21.20;8.10;;;;;;;9.98;50.22;102675.50;4960560;28;20078;-61
2022/01/15 09:25:34;;;;;;;36.70;8.02;;;;;;;9.95;50.04;102680.06;4977637;28;20077;-59
2022/01/15 09:30:43;;;;;;;37.42;8.90;;;;;;;9.97;50.03;102671.09;4977681;28;20138;-59
2022/01/15 09:33:08;;;;;;;25.20;8.32;;;;;;;9.95;50.03;102666.69;4977936;28;20109;-59
2022/01/15 09:35:34;;;;;;;22.75;7.65;;;;;;;10.01;50.04;102662.81;4977416;28;20051;-59
2022/01/15 09:38:00;;;;;;;25.50;8.18;;;;;;;10.03;50.32;102665.41;4977541;28;20034;-60
2022/01/15 09:40:27;;;;;;;22.65;8.95;;;;;;;10.03;50.22;102665.41;4977059;28;20019;-59
2022/01/15 09:42:53;;;;;;;26.63;6.97;;;;;;;10.01;49.95;102667.31;4977348;28;20023;-59
2022/01/15 09:45:20;;;;;;;30.23;9.60;;;;;;;10.02;49.97;102658.34;4960369;28;20090;-59
2022/01/15 09:47:49;;;;;;;27.67;7.88;;;;;;;10.05;50.30;102659.03;4959912;28;20034;-59
2022/01/15 09:50:16;;;;;;;25.10;8.98;;;;;;;10.07;50.13;102667.00;4976438;28;20447;-59
2022/01/15 09:52:42;;;;;;;28.27;8.95;;;;;;;10.09;49.92;102665.09;4960558;28;20034;-59
2022/01/15 09:55:10;;;;;;;21.60;7.45;;;;;;;10.05;50.04;102650.16;4977185;28;20023;-59
2022/01/15 09:57:36;;;;;;;31.40;7.63;;;;;;;10.11;50.06;102657.84;4977294;28;20473;-61
2022/01/15 10:00:05;;;;;;;22.13;8.15;;;;;;;10.13;49.96;102656.00;4977077;28;20031;-61
2022/01/15 10:02:30;;;;;;;29.33;9.40;;;;;;;10.16;50.24;102662.03;4960065;28;20026;-62
2022/01/15 10:04:55;;;;;;;33.70;9.45;;;;;;;10.17;49.34;102654.88;4976001;28;20037;-59
2022/01/15 10:07:27;;;;;;;27.00;9.60;;;;;;;10.17;50.13;102655.75;4977022;28;20154;-59
2022/01/15 10:09:54;;;;;;;24.17;9.40;;;;;;;10.18;50.09;102649.44;4975896;28;20030;-59
2022/01/15 10:12:31;;;;;;;23.95;8.20;;;;;;;10.20;50.26;102646.69;4959513;28;20026;-59
2022/01/15 10:15:05;;;;;;;22.15;8.10;;;;;;;10.15;49.56;102638.91;4960021;28;20035;-59
2022/01/15 10:17:33;;;;;;;23.52;8.48;;;;;;;10.16;49.76;102647.81;4976982;28;20022;-59
2022/01/15 10:19:59;;;;;;;24.30;8.77;;;;;;;10.13;49.85;102650.63;4975483;28;20034;-59
2022/01/15 10:22:27;;;;;;;27.45;8.82;;;;;;;10.14;49.94;102657.69;4959557;28;20102;-62
2022/01/15 10:25:05;;;;;;;21.60;8.35;;;;;;;10.13;50.16;102654.19;4976611;28;20023;-61
2022/01/15 10:27:39;;;;;;;22.35;8.20;;;;;;;10.16;50.18;102653.16;4976939;28;20522;-62
2022/01/15 10:30:04;;;;;;;;;;;;;;;10.15;49.64;102648.75;4977088;28;20026;-61
2022/01/15 10:32:32;;;;;;;18.75;7.40;;;;;;;10.16;49.89;102655.84;4976333;28;20291;-62
2022/01/15 10:34:58;;;;;;;18.30;7.65;;;;;;;10.19;49.91;102656.50;4976652;28;20058;-61
2022/01/15 10:37:26;;;;;;;19.20;8.13;;;;;;;10.23;49.63;102651.88;4959078;28;20029;-61
2022/01/15 10:39:58;;;;;;;28.13;8.18;;;;;;;10.25;49.76;102639.25;4976634;28;20029;-61
2022/01/15 10:42:25;;;;;;;28.67;9.82;;;;;;;10.22;49.26;102634.06;4976213;28;20389;-61
2022/01/15 10:44:55;;;;;;;24.90;7.80;;;;;;;10.27;49.56;102638.22;4959182;28;20054;-61
2022/01/15 10:47:23;;;;;;;20.50;8.75;;;;;;;10.29;49.74;102640.84;4958738;28;20073;-62
2022/01/15 10:49:49;;;;;;;19.65;8.23;;;;;;;10.30;49.55;102632.69;4974950;28;20439;-61
2022/01/15 10:52:20;;;;;;;26.38;7.95;;;;;;;10.27;49.20;102621.31;4975488;28;20027;-62
2022/01/15 10:55:00;;;;;;;24.35;9.23;;;;;;;10.36;50.16;102631.50;4976070;28;20482;-62
2022/01/15 10:57:28;;;;;;;21.75;8.82;;;;;;;10.38;49.71;102635.84;4976133;28;20445;-61
2022/01/15 11:00:17;;;;;;;19.55;7.22;;;;;;;10.37;49.65;102623.41;4975670;28;20030;-62
2022/01/15 11:02:46;;;;;;;16.92;7.45;;;;;;;10.33;49.56;102621.81;4975804;28;20037;-62
2022/01/15 11:05:44;;;;;;;17.23;7.43;;;;;;;10.31;49.94;102614.81;4959014;28;20026;-61
2022/01/15 11:08:23;;;;;;;20.58;8.38;;;;;;;10.32;49.75;102613.88;4975383;28;20046;-62
2022/01/15 11:10:55;;;;;;;17.17;7.93;;;;;;;10.32;49.63;102617.44;4975847;28;20022;-62
2022/01/15 11:13:25;;;;;;;17.73;8.57;;;;;;;10.36;49.63;102620.78;4975789;28;20030;-61
2022/01/15 11:15:56;;;;;;;25.95;9.30;;;;;;;10.40;49.53;102625.03;4974739;28;20440;-61
2022/01/15 11:18:31;;;;;;;19.77;8.32;;;;;;;10.40;49.92;102606.28;4958923;28;20052;-62
2022/01/15 11:20:59;;;;;;;20.67;9.00;;;;;;;10.44;49.71;102605.19;4974298;28;20182;-61
2022/01/15 11:23:26;;;;;;;21.85;8.90;;;;;;;10.45;49.51;102602.41;4975152;28;20054;-62
2022/01/15 11:25:55;;;;;;;21.45;8.25;;;;;;;10.42;49.41;102599.03;4975338;28;20026;-61
2022/01/15 11:28:25;;;;;;;19.38;9.55;;;;;;;10.46;49.78;102609.50;4974835;28;20037;-62
2022/01/15 11:30:56;;;;;;;20.27;9.05;;;;;;;10.46;49.50;102603.28;4975500;28;20062;-61
2022/01/15 11:33:26;;;;;;;22.33;9.00;;;;;;;10.48;48.98;102594.19;4958182;28;20395;-61
2022/01/15 11:35:52;;;;;;;21.40;9.88;;;;;;;10.53;49.37;102591.25;4964003;28;20054;-61
2022/01/15 11:38:37;;;;;;;17.38;7.30;;;;;;;10.60;49.79;102603.38;4954578;28;20022;-62
2022/01/15 11:41:03;;;;;;;19.10;8.00;;;;;;;10.58;49.53;102585.66;4985929;28;20039;-61
2022/01/15 11:43:30;;;;;;;18.25;7.45;;;;;;;10.63;49.41;102602.34;4975477;28;20034;-62
2022/01/15 11:45:58;;;;;;;17.60;7.65;;;;;;;10.64;49.35;102583.47;4975234;28;20034;-62